Johns Creek, Kentucky
Current Conditions -  °F | °C
As of 3:15 AM on Saturday 25 Oct 2014 (Local Time) from KSJS Reporting Station
Clear Clear  
Wind Chill: 45°   Ceiling: Unl
Heat Index: 45°   Visibility: 10mi
Dew Point: 42°   Wind: 3mph
Humidity: 90%   Direction: 210°SSW
Pressure: 30.07"   Gusts: NA
Location:  37.7034°N, 82.6848°W
Report Text: KSJS 250715Z AUTO 21003KT 10SM CLR 07/06 A3007 RMK AO2 T00710056
Loading
Personal Weather Stations






























Interactive Weather Map
Tropical Storm Tracking
New forecast layout! Learn more

10-Day Weather Forecast

Advertisements
Track Severe Weather on mobile